sensor_id;sensor_type;location;lat;lon;timestamp;temperature;humidity
23748;DHT22;12054;53.662;10.126;2022-08-11T00:00:43;20.40;86.70
23748;DHT22;12054;53.662;10.126;2022-08-11T00:03:12;20.40;86.80
23748;DHT22;12054;53.662;10.126;2022-08-11T00:05:50;20.30;86.80
23748;DHT22;12054;53.662;10.126;2022-08-11T00:08:24;20.30;87.70
23748;DHT22;12054;53.662;10.126;2022-08-11T00:10:53;20.30;87.20
23748;DHT22;12054;53.662;10.126;2022-08-11T00:13:21;20.20;87.30
23748;DHT22;12054;53.662;10.126;2022-08-11T00:15:48;20.20;87.50
23748;DHT22;12054;53.662;10.126;2022-08-11T00:18:14;20.10;87.60
23748;DHT22;12054;53.662;10.126;2022-08-11T00:20:41;20.10;87.80
23748;DHT22;12054;53.662;10.126;2022-08-11T00:23:11;20.00;88.10
23748;DHT22;12054;53.662;10.126;2022-08-11T00:25:43;20.00;88.30
23748;DHT22;12054;53.662;10.126;2022-08-11T00:28:29;20.00;88.50
23748;DHT22;12054;53.662;10.126;2022-08-11T00:30:58;19.90;88.70
23748;DHT22;12054;53.662;10.126;2022-08-11T00:33:32;19.90;88.90
23748;DHT22;12054;53.662;10.126;2022-08-11T00:35:59;19.80;89.00
23748;DHT22;12054;53.662;10.126;2022-08-11T00:38:33;19.80;89.20
23748;DHT22;12054;53.662;10.126;2022-08-11T00:41:14;19.80;89.40
23748;DHT22;12054;53.662;10.126;2022-08-11T00:43:54;19.70;89.50
23748;DHT22;12054;53.662;10.126;2022-08-11T00:57:52;19.60;90.10
23748;DHT22;12054;53.662;10.126;2022-08-11T01:00:21;19.50;90.10
23748;DHT22;12054;53.662;10.126;2022-08-11T01:06:05;19.40;90.20
23748;DHT22;12054;53.662;10.126;2022-08-11T01:09:08;19.40;90.30
23748;DHT22;12054;53.662;10.126;2022-08-11T01:18:10;19.20;90.50
23748;DHT22;12054;53.662;10.126;2022-08-11T01:21:07;19.20;90.60
23748;DHT22;12054;53.662;10.126;2022-08-11T01:24:06;19.20;90.70
23748;DHT22;12054;53.662;10.126;2022-08-11T01:27:07;19.10;90.70
23748;DHT22;12054;53.662;10.126;2022-08-11T01:32:36;19.00;90.90
23748;DHT22;12054;53.662;10.126;2022-08-11T01:44:04;18.90;91.20
23748;DHT22;12054;53.662;10.126;2022-08-11T01:47:26;18.80;91.30
23748;DHT22;12054;53.662;10.126;2022-08-11T01:50:30;18.80;91.30
23748;DHT22;12054;53.662;10.126;2022-08-11T02:01:35;18.60;91.60
23748;DHT22;12054;53.662;10.126;2022-08-11T02:07:17;18.60;91.80
23748;DHT22;12054;53.662;10.126;2022-08-11T02:12:56;18.50;91.90
23748;DHT22;12054;53.662;10.126;2022-08-11T02:15:29;18.50;92.00
23748;DHT22;12054;53.662;10.126;2022-08-11T02:18:22;18.40;92.00
23748;DHT22;12054;53.662;10.126;2022-08-11T02:20:56;18.40;92.10
23748;DHT22;12054;53.662;10.126;2022-08-11T02:24:03;18.40;92.10
23748;DHT22;12054;53.662;10.126;2022-08-11T02:26:46;18.30;92.20
23748;DHT22;12054;53.662;10.126;2022-08-11T02:29:23;18.30;92.30
23748;DHT22;12054;53.662;10.126;2022-08-11T02:42:32;18.10;92.50
23748;DHT22;12054;53.662;10.126;2022-08-11T02:48:27;18.10;92.70
23748;DHT22;12054;53.662;10.126;2022-08-11T02:51:26;18.00;92.80
23748;DHT22;12054;53.662;10.126;2022-08-11T02:54:26;18.00;92.80
23748;DHT22;12054;53.662;10.126;2022-08-11T02:57:03;18.00;92.90
23748;DHT22;12054;53.662;10.126;2022-08-11T02:59:44;17.90;92.90
23748;DHT22;12054;53.662;10.126;2022-08-11T03:20:05;17.70;93.30
23748;DHT22;12054;53.662;10.126;2022-08-11T03:22:52;17.70;93.40
23748;DHT22;12054;53.662;10.126;2022-08-11T03:28:20;17.60;93.50
23748;DHT22;12054;53.662;10.126;2022-08-11T03:31:17;17.60;93.50
23748;DHT22;12054;53.662;10.126;2022-08-11T03:33:59;17.60;93.60
23748;DHT22;12054;53.662;10.126;2022-08-11T03:37:10;17.50;93.60
23748;DHT22;12054;53.662;10.126;2022-08-11T03:46:11;17.40;93.60
23748;DHT22;12054;53.662;10.126;2022-08-11T03:58:14;17.30;93.90
23748;DHT22;12054;53.662;10.126;2022-08-11T04:03:56;17.20;94.00
23748;DHT22;12054;53.662;10.126;2022-08-11T04:09:59;17.20;94.30
23748;DHT22;12054;53.662;10.126;2022-08-11T04:18:27;17.10;94.40
23748;DHT22;12054;53.662;10.126;2022-08-11T04:23:57;17.10;94.60
23748;DHT22;12054;53.662;10.126;2022-08-11T04:30:07;17.00;94.70
23748;DHT22;12054;53.662;10.126;2022-08-11T04:46:56;16.90;95.30
23748;DHT22;12054;53.662;10.126;2022-08-11T04:49:49;16.90;95.50
23748;DHT22;12054;53.662;10.126;2022-08-11T04:59:19;16.90;95.90
23748;DHT22;12054;53.662;10.126;2022-08-11T05:17:22;16.80;96.70
23748;DHT22;12054;53.662;10.126;2022-08-11T05:20:09;16.80;97.00
23748;DHT22;12054;53.662;10.126;2022-08-11T05:22:55;16.80;97.10
23748;DHT22;12054;53.662;10.126;2022-08-11T05:25:43;16.80;97.30
23748;DHT22;12054;53.662;10.126;2022-08-11T05:31:35;16.80;97.90
23748;DHT22;12054;53.662;10.126;2022-08-11T05:34:33;16.80;97.90
23748;DHT22;12054;53.662;10.126;2022-08-11T05:37:24;16.80;98.10
23748;DHT22;12054;53.662;10.126;2022-08-11T05:40:10;16.80;98.30
23748;DHT22;12054;53.662;10.126;2022-08-11T05:42:58;16.80;98.70
23748;DHT22;12054;53.662;10.126;2022-08-11T05:45:43;16.80;98.80
23748;DHT22;12054;53.662;10.126;2022-08-11T05:48:34;16.80;99.10
23748;DHT22;12054;53.662;10.126;2022-08-11T05:51:20;16.80;99.50
23748;DHT22;12054;53.662;10.126;2022-08-11T05:54:08;16.80;99.70
23748;DHT22;12054;53.662;10.126;2022-08-11T05:56:58;16.80;99.90
23748;DHT22;12054;53.662;10.126;2022-08-11T05:59:26;16.90;99.90
23748;DHT22;12054;53.662;10.126;2022-08-11T06:02:02;16.90;99.90
23748;DHT22;12054;53.662;10.126;2022-08-11T06:04:28;16.90;99.90
23748;DHT22;12054;53.662;10.126;2022-08-11T06:07:03;16.90;99.90
23748;DHT22;12054;53.662;10.126;2022-08-11T06:09:35;17.00;99.90
23748;DHT22;12054;53.662;10.126;2022-08-11T06:12:07;17.00;99.90
23748;DHT22;12054;53.662;10.126;2022-08-11T06:14:41;17.00;99.90
23748;DHT22;12054;53.662;10.126;2022-08-11T06:17:07;17.10;99.90
23748;DHT22;12054;53.662;10.126;2022-08-11T06:19:46;17.10;99.90
23748;DHT22;12054;53.662;10.126;2022-08-11T06:22:12;17.10;99.90
23748;DHT22;12054;53.662;10.126;2022-08-11T06:24:52;17.20;99.90
23748;DHT22;12054;53.662;10.126;2022-08-11T06:27:21;17.20;99.90
23748;DHT22;12054;53.662;10.126;2022-08-11T06:29:50;17.30;99.90
23748;DHT22;12054;53.662;10.126;2022-08-11T06:32:17;17.30;99.90
23748;DHT22;12054;53.662;10.126;2022-08-11T06:37:57;17.40;99.90
23748;DHT22;12054;53.662;10.126;2022-08-11T06:45:54;17.60;99.90
23748;DHT22;12054;53.662;10.126;2022-08-11T06:48:23;17.70;99.90
23748;DHT22;12054;53.662;10.126;2022-08-11T06:50:56;17.80;99.90
23748;DHT22;12054;53.662;10.126;2022-08-11T06:53:45;17.80;99.90
23748;DHT22;12054;53.662;10.126;2022-08-11T06:56:20;17.90;99.90
23748;DHT22;12054;53.662;10.126;2022-08-11T06:59:05;18.00;99.90
23748;DHT22;12054;53.662;10.126;2022-08-11T07:04:51;18.20;99.90
23748;DHT22;12054;53.662;10.126;2022-08-11T07:13:12;18.60;99.90
23748;DHT22;12054;53.662;10.126;2022-08-11T07:15:58;18.80;99.90
23748;DHT22;12054;53.662;10.126;2022-08-11T07:18:26;19.00;99.90
23748;DHT22;12054;53.662;10.126;2022-08-11T07:21:35;19.20;99.90
23748;DHT22;12054;53.662;10.126;2022-08-11T07:24:29;19.50;99.90
23748;DHT22;12054;53.662;10.126;2022-08-11T07:27:17;19.90;99.90
23748;DHT22;12054;53.662;10.126;2022-08-11T07:30:06;20.20;99.90
23748;DHT22;12054;53.662;10.126;2022-08-11T07:32:51;20.50;99.90
23748;DHT22;12054;53.662;10.126;2022-08-11T07:35:42;20.80;99.90
23748;DHT22;12054;53.662;10.126;2022-08-11T07:38:37;21.20;99.40
23748;DHT22;12054;53.662;10.126;2022-08-11T07:41:11;21.50;98.90
23748;DHT22;12054;53.662;10.126;2022-08-11T07:43:39;21.80;98.40
23748;DHT22;12054;53.662;10.126;2022-08-11T07:46:06;22.10;97.90
23748;DHT22;12054;53.662;10.126;2022-08-11T07:48:51;22.50;97.60
23748;DHT22;12054;53.662;10.126;2022-08-11T07:51:36;22.80;97.00
23748;DHT22;12054;53.662;10.126;2022-08-11T07:54:20;23.10;96.30
23748;DHT22;12054;53.662;10.126;2022-08-11T07:56:46;23.40;95.60
23748;DHT22;12054;53.662;10.126;2022-08-11T07:59:13;23.60;95.10
23748;DHT22;12054;53.662;10.126;2022-08-11T08:01:58;23.90;94.90
23748;DHT22;12054;53.662;10.126;2022-08-11T08:04:44;24.10;93.80
23748;DHT22;12054;53.662;10.126;2022-08-11T08:07:29;24.40;93.30
23748;DHT22;12054;53.662;10.126;2022-08-11T08:10:17;24.70;92.80
23748;DHT22;12054;53.662;10.126;2022-08-11T08:13:02;24.90;92.30
23748;DHT22;12054;53.662;10.126;2022-08-11T08:15:47;25.00;92.20
23748;DHT22;12054;53.662;10.126;2022-08-11T08:18:33;25.20;92.00
23748;DHT22;12054;53.662;10.126;2022-08-11T08:21:03;25.30;91.30
23748;DHT22;12054;53.662;10.126;2022-08-11T08:23:44;25.50;91.00
23748;DHT22;12054;53.662;10.126;2022-08-11T08:26:12;25.60;90.50
23748;DHT22;12054;53.662;10.126;2022-08-11T08:28:59;25.80;90.10
23748;DHT22;12054;53.662;10.126;2022-08-11T08:31:45;25.90;89.70
23748;DHT22;12054;53.662;10.126;2022-08-11T08:34:13;26.20;88.10
23748;DHT22;12054;53.662;10.126;2022-08-11T08:36:43;26.40;86.50
23748;DHT22;12054;53.662;10.126;2022-08-11T08:39:11;26.50;85.80
23748;DHT22;12054;53.662;10.126;2022-08-11T08:41:38;26.60;85.10
23748;DHT22;12054;53.662;10.126;2022-08-11T08:44:09;26.80;84.30
23748;DHT22;12054;53.662;10.126;2022-08-11T08:46:48;27.10;82.40
23748;DHT22;12054;53.662;10.126;2022-08-11T08:49:18;27.20;81.30
23748;DHT22;12054;53.662;10.126;2022-08-11T08:51:45;27.20;80.10
23748;DHT22;12054;53.662;10.126;2022-08-11T08:54:16;27.40;79.60
23748;DHT22;12054;53.662;10.126;2022-08-11T08:56:44;27.50;79.80
23748;DHT22;12054;53.662;10.126;2022-08-11T08:59:12;27.50;79.30
23748;DHT22;12054;53.662;10.126;2022-08-11T09:01:56;27.70;78.80
23748;DHT22;12054;53.662;10.126;2022-08-11T09:04:23;27.70;77.80
23748;DHT22;12054;53.662;10.126;2022-08-11T09:06:49;27.70;77.30
23748;DHT22;12054;53.662;10.126;2022-08-11T09:09:15;27.80;76.70
23748;DHT22;12054;53.662;10.126;2022-08-11T09:11:42;27.90;75.80
23748;DHT22;12054;53.662;10.126;2022-08-11T09:14:26;28.00;74.60
23748;DHT22;12054;53.662;10.126;2022-08-11T09:17:16;28.20;73.00
23748;DHT22;12054;53.662;10.126;2022-08-11T09:19:43;28.40;72.50
23748;DHT22;12054;53.662;10.126;2022-08-11T09:22:08;28.50;71.70
23748;DHT22;12054;53.662;10.126;2022-08-11T09:24:54;28.60;70.70
23748;DHT22;12054;53.662;10.126;2022-08-11T09:27:39;28.80;69.70
23748;DHT22;12054;53.662;10.126;2022-08-11T09:30:06;28.90;68.90
23748;DHT22;12054;53.662;10.126;2022-08-11T09:32:33;29.10;68.60
23748;DHT22;12054;53.662;10.126;2022-08-11T09:35:00;29.10;67.60
23748;DHT22;12054;53.662;10.126;2022-08-11T09:37:27;29.30;66.40
23748;DHT22;12054;53.662;10.126;2022-08-11T09:40:13;29.30;66.00
23748;DHT22;12054;53.662;10.126;2022-08-11T09:42:56;29.40;65.50
23748;DHT22;12054;53.662;10.126;2022-08-11T09:45:43;29.50;64.40
23748;DHT22;12054;53.662;10.126;2022-08-11T09:48:10;29.60;64.00
23748;DHT22;12054;53.662;10.126;2022-08-11T09:50:36;29.70;64.00
23748;DHT22;12054;53.662;10.126;2022-08-11T09:53:04;29.70;63.10
23748;DHT22;12054;53.662;10.126;2022-08-11T09:55:32;29.80;62.70
23748;DHT22;12054;53.662;10.126;2022-08-11T09:57:59;29.80;62.30
23748;DHT22;12054;53.662;10.126;2022-08-11T10:00:48;29.80;61.80
23748;DHT22;12054;53.662;10.126;2022-08-11T10:03:21;29.90;61.40
23748;DHT22;12054;53.662;10.126;2022-08-11T10:06:09;30.00;60.70
23748;DHT22;12054;53.662;10.126;2022-08-11T10:08:53;30.20;60.00
23748;DHT22;12054;53.662;10.126;2022-08-11T10:11:22;30.20;61.20
23748;DHT22;12054;53.662;10.126;2022-08-11T10:13:51;30.20;59.80
23748;DHT22;12054;53.662;10.126;2022-08-11T10:16:39;30.30;59.40
23748;DHT22;12054;53.662;10.126;2022-08-11T10:19:07;30.30;59.70
23748;DHT22;12054;53.662;10.126;2022-08-11T10:21:41;30.40;60.20
23748;DHT22;12054;53.662;10.126;2022-08-11T10:24:09;30.40;59.80
23748;DHT22;12054;53.662;10.126;2022-08-11T10:26:55;30.50;59.60
23748;DHT22;12054;53.662;10.126;2022-08-11T10:29:31;30.60;59.50
23748;DHT22;12054;53.662;10.126;2022-08-11T10:32:27;30.70;59.00
23748;DHT22;12054;53.662;10.126;2022-08-11T10:35:15;30.80;58.60
23748;DHT22;12054;53.662;10.126;2022-08-11T10:37:45;30.80;58.90
23748;DHT22;12054;53.662;10.126;2022-08-11T10:40:16;30.90;58.40
23748;DHT22;12054;53.662;10.126;2022-08-11T10:42:42;30.90;57.80
23748;DHT22;12054;53.662;10.126;2022-08-11T10:45:29;31.00;57.60
23748;DHT22;12054;53.662;10.126;2022-08-11T10:48:13;31.10;57.20
23748;DHT22;12054;53.662;10.126;2022-08-11T10:50:44;31.10;56.90
23748;DHT22;12054;53.662;10.126;2022-08-11T10:53:29;31.20;56.80
23748;DHT22;12054;53.662;10.126;2022-08-11T10:56:14;31.30;56.70
23748;DHT22;12054;53.662;10.126;2022-08-11T10:58:58;31.30;56.30
23748;DHT22;12054;53.662;10.126;2022-08-11T11:01:27;31.40;56.00
23748;DHT22;12054;53.662;10.126;2022-08-11T11:04:08;31.40;55.70
23748;DHT22;12054;53.662;10.126;2022-08-11T11:09:23;31.60;55.50
23748;DHT22;12054;53.662;10.126;2022-08-11T11:11:53;31.60;55.20
23748;DHT22;12054;53.662;10.126;2022-08-11T11:14:40;31.70;54.40
23748;DHT22;12054;53.662;10.126;2022-08-11T11:17:32;31.70;54.00
23748;DHT22;12054;53.662;10.126;2022-08-11T11:20:22;31.80;53.70
23748;DHT22;12054;53.662;10.126;2022-08-11T11:22:52;31.90;53.40
23748;DHT22;12054;53.662;10.126;2022-08-11T11:28:27;32.10;52.00
23748;DHT22;12054;53.662;10.126;2022-08-11T11:36:46;32.30;52.40
23748;DHT22;12054;53.662;10.126;2022-08-11T11:39:14;32.40;52.20
23748;DHT22;12054;53.662;10.126;2022-08-11T11:41:41;32.40;51.90
23748;DHT22;12054;53.662;10.126;2022-08-11T11:44:10;32.40;52.10
23748;DHT22;12054;53.662;10.126;2022-08-11T11:46:37;32.50;51.00
23748;DHT22;12054;53.662;10.126;2022-08-11T11:49:03;32.60;50.70
23748;DHT22;12054;53.662;10.126;2022-08-11T11:51:33;32.60;50.60
23748;DHT22;12054;53.662;10.126;2022-08-11T11:54:01;32.70;50.00
23748;DHT22;12054;53.662;10.126;2022-08-11T11:56:27;32.80;49.40
23748;DHT22;12054;53.662;10.126;2022-08-11T11:58:54;32.80;49.10
23748;DHT22;12054;53.662;10.126;2022-08-11T12:01:39;32.80;48.80
23748;DHT22;12054;53.662;10.126;2022-08-11T12:04:05;32.90;48.70
23748;DHT22;12054;53.662;10.126;2022-08-11T12:06:31;32.90;48.40
23748;DHT22;12054;53.662;10.126;2022-08-11T12:08:58;33.00;48.30
23748;DHT22;12054;53.662;10.126;2022-08-11T12:11:25;32.90;48.20
23748;DHT22;12054;53.662;10.126;2022-08-11T12:14:10;33.00;47.60
23748;DHT22;12054;53.662;10.126;2022-08-11T12:16:39;33.10;47.50
23748;DHT22;12054;53.662;10.126;2022-08-11T12:19:07;33.10;46.70
23748;DHT22;12054;53.662;10.126;2022-08-11T12:21:35;33.00;46.00
23748;DHT22;12054;53.662;10.126;2022-08-11T12:24:03;33.10;45.70
23748;DHT22;12054;53.662;10.126;2022-08-11T12:26:48;33.10;46.50
23748;DHT22;12054;53.662;10.126;2022-08-11T12:29:16;33.10;47.00
23748;DHT22;12054;53.662;10.126;2022-08-11T12:31:44;33.10;47.70
23748;DHT22;12054;53.662;10.126;2022-08-11T12:34:11;33.20;47.40
23748;DHT22;12054;53.662;10.126;2022-08-11T12:36:40;33.20;47.10
23748;DHT22;12054;53.662;10.126;2022-08-11T12:39:08;33.30;46.70
23748;DHT22;12054;53.662;10.126;2022-08-11T12:41:36;33.30;46.80
23748;DHT22;12054;53.662;10.126;2022-08-11T12:44:26;33.30;46.60
23748;DHT22;12054;53.662;10.126;2022-08-11T12:47:13;33.40;46.00
23748;DHT22;12054;53.662;10.126;2022-08-11T12:49:44;33.40;45.50
23748;DHT22;12054;53.662;10.126;2022-08-11T12:52:42;33.40;45.30
23748;DHT22;12054;53.662;10.126;2022-08-11T12:55:13;33.50;45.30
23748;DHT22;12054;53.662;10.126;2022-08-11T12:58:00;33.60;45.10
23748;DHT22;12054;53.662;10.126;2022-08-11T13:00:45;33.60;45.00
23748;DHT22;12054;53.662;10.126;2022-08-11T13:03:31;33.60;44.90
23748;DHT22;12054;53.662;10.126;2022-08-11T13:06:17;33.60;44.70
23748;DHT22;12054;53.662;10.126;2022-08-11T13:08:44;33.60;44.40
23748;DHT22;12054;53.662;10.126;2022-08-11T13:11:11;33.70;44.40
23748;DHT22;12054;53.662;10.126;2022-08-11T13:13:56;33.70;44.10
23748;DHT22;12054;53.662;10.126;2022-08-11T13:16:24;33.70;44.10
23748;DHT22;12054;53.662;10.126;2022-08-11T13:18:51;33.70;43.50
23748;DHT22;12054;53.662;10.126;2022-08-11T13:21:17;33.70;43.80
23748;DHT22;12054;53.662;10.126;2022-08-11T13:23:44;33.80;44.40
23748;DHT22;12054;53.662;10.126;2022-08-11T13:26:10;33.80;44.50
23748;DHT22;12054;53.662;10.126;2022-08-11T13:28:36;33.80;44.50
23748;DHT22;12054;53.662;10.126;2022-08-11T13:31:03;33.90;44.50
23748;DHT22;12054;53.662;10.126;2022-08-11T13:33:48;33.90;44.10
23748;DHT22;12054;53.662;10.126;2022-08-11T13:36:19;34.00;44.40
23748;DHT22;12054;53.662;10.126;2022-08-11T13:38:47;34.00;44.10
23748;DHT22;12054;53.662;10.126;2022-08-11T13:41:13;34.00;43.90
23748;DHT22;12054;53.662;10.126;2022-08-11T13:43:58;34.10;43.70
23748;DHT22;12054;53.662;10.126;2022-08-11T13:46:24;34.10;43.50
23748;DHT22;12054;53.662;10.126;2022-08-11T13:48:53;34.10;43.50
23748;DHT22;12054;53.662;10.126;2022-08-11T13:51:20;34.20;43.40
23748;DHT22;12054;53.662;10.126;2022-08-11T13:54:20;34.20;43.30
23748;DHT22;12054;53.662;10.126;2022-08-11T13:56:49;34.10;42.80
23748;DHT22;12054;53.662;10.126;2022-08-11T13:59:18;34.10;42.90
23748;DHT22;12054;53.662;10.126;2022-08-11T14:01:58;34.10;42.70
23748;DHT22;12054;53.662;10.126;2022-08-11T14:07:19;34.10;42.50
23748;DHT22;12054;53.662;10.126;2022-08-11T14:09:47;34.10;42.60
23748;DHT22;12054;53.662;10.126;2022-08-11T14:12:28;34.10;42.70
23748;DHT22;12054;53.662;10.126;2022-08-11T14:15:30;34.00;42.30
23748;DHT22;12054;53.662;10.126;2022-08-11T14:18:05;34.00;42.30
23748;DHT22;12054;53.662;10.126;2022-08-11T14:20:33;34.00;42.80
23748;DHT22;12054;53.662;10.126;2022-08-11T14:23:24;34.00;43.70
23748;DHT22;12054;53.662;10.126;2022-08-11T14:25:51;33.90;44.70
23748;DHT22;12054;53.662;10.126;2022-08-11T14:28:35;33.80;45.50
23748;DHT22;12054;53.662;10.126;2022-08-11T14:31:03;33.70;46.00
23748;DHT22;12054;53.662;10.126;2022-08-11T14:33:32;33.60;46.30
23748;DHT22;12054;53.662;10.126;2022-08-11T14:35:58;33.50;46.70
23748;DHT22;12054;53.662;10.126;2022-08-11T14:38:33;33.40;47.00
23748;DHT22;12054;53.662;10.126;2022-08-11T14:40:59;33.30;47.30
23748;DHT22;12054;53.662;10.126;2022-08-11T14:43:44;33.30;47.80
23748;DHT22;12054;53.662;10.126;2022-08-11T14:46:29;33.10;48.20
23748;DHT22;12054;53.662;10.126;2022-08-11T14:49:15;33.00;48.00
23748;DHT22;12054;53.662;10.126;2022-08-11T14:51:41;33.00;48.00
23748;DHT22;12054;53.662;10.126;2022-08-11T14:54:08;32.90;48.10
23748;DHT22;12054;53.662;10.126;2022-08-11T14:56:52;32.80;48.00
23748;DHT22;12054;53.662;10.126;2022-08-11T14:59:18;32.90;48.10
23748;DHT22;12054;53.662;10.126;2022-08-11T15:01:45;32.80;48.00
23748;DHT22;12054;53.662;10.126;2022-08-11T15:04:29;32.80;47.80
23748;DHT22;12054;53.662;10.126;2022-08-11T15:06:56;32.70;47.80
23748;DHT22;12054;53.662;10.126;2022-08-11T15:09:23;32.70;47.80
23748;DHT22;12054;53.662;10.126;2022-08-11T15:11:49;32.60;47.70
23748;DHT22;12054;53.662;10.126;2022-08-11T15:14:44;32.60;47.60
23748;DHT22;12054;53.662;10.126;2022-08-11T15:17:33;32.60;47.60
23748;DHT22;12054;53.662;10.126;2022-08-11T15:20:05;32.50;47.60
23748;DHT22;12054;53.662;10.126;2022-08-11T15:22:50;32.40;47.70
23748;DHT22;12054;53.662;10.126;2022-08-11T15:25:34;32.40;48.10
23748;DHT22;12054;53.662;10.126;2022-08-11T15:28:02;32.20;48.30
23748;DHT22;12054;53.662;10.126;2022-08-11T15:30:55;32.10;48.30
23748;DHT22;12054;53.662;10.126;2022-08-11T15:33:43;32.00;48.50
23748;DHT22;12054;53.662;10.126;2022-08-11T15:36:29;32.00;48.80
23748;DHT22;12054;53.662;10.126;2022-08-11T15:42:12;31.80;49.10
23748;DHT22;12054;53.662;10.126;2022-08-11T15:44:59;31.70;49.20
23748;DHT22;12054;53.662;10.126;2022-08-11T15:47:54;31.60;49.20
23748;DHT22;12054;53.662;10.126;2022-08-11T15:50:27;31.50;49.10
23748;DHT22;12054;53.662;10.126;2022-08-11T15:53:01;31.40;49.00
23748;DHT22;12054;53.662;10.126;2022-08-11T15:55:28;31.40;49.40
23748;DHT22;12054;53.662;10.126;2022-08-11T15:57:55;31.30;49.60
23748;DHT22;12054;53.662;10.126;2022-08-11T16:00:42;31.20;49.90
23748;DHT22;12054;53.662;10.126;2022-08-11T16:03:41;31.20;50.70
23748;DHT22;12054;53.662;10.126;2022-08-11T16:06:26;31.10;50.20
23748;DHT22;12054;53.662;10.126;2022-08-11T16:08:54;30.90;50.10
23748;DHT22;12054;53.662;10.126;2022-08-11T16:11:22;30.90;50.20
23748;DHT22;12054;53.662;10.126;2022-08-11T16:13:50;30.80;50.30
23748;DHT22;12054;53.662;10.126;2022-08-11T16:16:56;30.70;50.50
23748;DHT22;12054;53.662;10.126;2022-08-11T16:19:25;30.60;50.80
23748;DHT22;12054;53.662;10.126;2022-08-11T16:21:52;30.50;50.80
23748;DHT22;12054;53.662;10.126;2022-08-11T16:24:19;30.40;50.70
23748;DHT22;12054;53.662;10.126;2022-08-11T16:26:46;30.40;50.90
23748;DHT22;12054;53.662;10.126;2022-08-11T16:29:14;30.40;51.10
23748;DHT22;12054;53.662;10.126;2022-08-11T16:31:40;30.30;51.20
23748;DHT22;12054;53.662;10.126;2022-08-11T16:34:06;30.20;51.30
23748;DHT22;12054;53.662;10.126;2022-08-11T16:36:54;30.10;51.30
23748;DHT22;12054;53.662;10.126;2022-08-11T16:39:41;30.10;51.70
23748;DHT22;12054;53.662;10.126;2022-08-11T16:42:08;30.00;51.60
23748;DHT22;12054;53.662;10.126;2022-08-11T16:44:54;29.90;51.90
23748;DHT22;12054;53.662;10.126;2022-08-11T16:47:41;29.80;52.00
23748;DHT22;12054;53.662;10.126;2022-08-11T16:50:09;29.70;51.90
23748;DHT22;12054;53.662;10.126;2022-08-11T16:52:34;29.70;52.10
23748;DHT22;12054;53.662;10.126;2022-08-11T16:55:01;29.60;52.20
23748;DHT22;12054;53.662;10.126;2022-08-11T16:57:28;29.60;52.30
23748;DHT22;12054;53.662;10.126;2022-08-11T17:00:16;29.50;52.50
23748;DHT22;12054;53.662;10.126;2022-08-11T17:02:52;29.40;52.60
23748;DHT22;12054;53.662;10.126;2022-08-11T17:05:51;29.40;52.70
23748;DHT22;12054;53.662;10.126;2022-08-11T17:08:46;29.30;53.00
23748;DHT22;12054;53.662;10.126;2022-08-11T17:11:36;29.20;53.00
23748;DHT22;12054;53.662;10.126;2022-08-11T17:14:25;29.10;53.10
23748;DHT22;12054;53.662;10.126;2022-08-11T17:16:53;29.00;53.10
23748;DHT22;12054;53.662;10.126;2022-08-11T17:19:32;29.00;53.20
23748;DHT22;12054;53.662;10.126;2022-08-11T17:21:59;28.90;53.90
23748;DHT22;12054;53.662;10.126;2022-08-11T17:24:45;28.80;53.10
23748;DHT22;12054;53.662;10.126;2022-08-11T17:27:17;28.80;53.20
23748;DHT22;12054;53.662;10.126;2022-08-11T17:29:56;28.70;53.30
23748;DHT22;12054;53.662;10.126;2022-08-11T17:32:31;28.70;53.30
23748;DHT22;12054;53.662;10.126;2022-08-11T17:35:21;28.60;53.20
23748;DHT22;12054;53.662;10.126;2022-08-11T17:38:11;28.60;53.30
23748;DHT22;12054;53.662;10.126;2022-08-11T17:40:40;28.50;53.30
23748;DHT22;12054;53.662;10.126;2022-08-11T17:43:28;28.40;53.30
23748;DHT22;12054;53.662;10.126;2022-08-11T17:46:14;28.40;53.50
23748;DHT22;12054;53.662;10.126;2022-08-11T17:48:58;28.30;53.40
23748;DHT22;12054;53.662;10.126;2022-08-11T17:51:24;28.20;53.50
23748;DHT22;12054;53.662;10.126;2022-08-11T17:54:09;28.20;53.60
23748;DHT22;12054;53.662;10.126;2022-08-11T17:56:55;28.10;53.60
23748;DHT22;12054;53.662;10.126;2022-08-11T17:59:42;28.00;53.80
23748;DHT22;12054;53.662;10.126;2022-08-11T18:02:43;28.00;54.10
23748;DHT22;12054;53.662;10.126;2022-08-11T18:05:36;27.90;54.40
23748;DHT22;12054;53.662;10.126;2022-08-11T18:08:05;27.90;54.50
23748;DHT22;12054;53.662;10.126;2022-08-11T18:10:51;27.80;54.70
23748;DHT22;12054;53.662;10.126;2022-08-11T18:13:39;27.80;54.90
23748;DHT22;12054;53.662;10.126;2022-08-11T18:16:25;27.80;55.20
23748;DHT22;12054;53.662;10.126;2022-08-11T18:19:10;27.70;55.30
23748;DHT22;12054;53.662;10.126;2022-08-11T18:22:05;27.70;55.60
23748;DHT22;12054;53.662;10.126;2022-08-11T18:25:04;27.60;55.90
23748;DHT22;12054;53.662;10.126;2022-08-11T18:27:53;27.50;56.10
23748;DHT22;12054;53.662;10.126;2022-08-11T18:30:40;27.50;56.40
23748;DHT22;12054;53.662;10.126;2022-08-11T18:33:29;27.30;56.70
23748;DHT22;12054;53.662;10.126;2022-08-11T18:36:20;27.30;56.90
23748;DHT22;12054;53.662;10.126;2022-08-11T18:39:07;27.20;57.00
23748;DHT22;12054;53.662;10.126;2022-08-11T18:41:53;27.10;57.20
23748;DHT22;12054;53.662;10.126;2022-08-11T18:44:41;27.00;57.20
23748;DHT22;12054;53.662;10.126;2022-08-11T18:47:27;27.00;57.30
23748;DHT22;12054;53.662;10.126;2022-08-11T18:50:11;26.90;57.30
23748;DHT22;12054;53.662;10.126;2022-08-11T18:52:58;26.80;57.30
23748;DHT22;12054;53.662;10.126;2022-08-11T18:55:44;26.80;57.40
23748;DHT22;12054;53.662;10.126;2022-08-11T18:58:31;26.70;57.30
23748;DHT22;12054;53.662;10.126;2022-08-11T19:01:17;26.70;57.70
23748;DHT22;12054;53.662;10.126;2022-08-11T19:04:05;26.60;57.50
23748;DHT22;12054;53.662;10.126;2022-08-11T19:06:53;26.60;57.50
23748;DHT22;12054;53.662;10.126;2022-08-11T19:09:41;26.50;57.50
23748;DHT22;12054;53.662;10.126;2022-08-11T19:12:30;26.50;57.60
23748;DHT22;12054;53.662;10.126;2022-08-11T19:15:16;26.40;57.80
23748;DHT22;12054;53.662;10.126;2022-08-11T19:18:01;26.40;58.10
23748;DHT22;12054;53.662;10.126;2022-08-11T19:20:47;26.30;58.20
23748;DHT22;12054;53.662;10.126;2022-08-11T19:23:40;26.30;58.50
23748;DHT22;12054;53.662;10.126;2022-08-11T19:26:25;26.20;58.60
23748;DHT22;12054;53.662;10.126;2022-08-11T19:29:11;26.10;58.80
23748;DHT22;12054;53.662;10.126;2022-08-11T19:31:56;26.10;59.00
23748;DHT22;12054;53.662;10.126;2022-08-11T19:34:42;26.10;59.20